createdAt,value
2022-08-27T01:31:05.970Z,4.25
2022-08-27T01:33:34.894Z,7.35
2022-08-27T01:36:04.142Z,11.98
2022-08-27T01:38:33.577Z,7.43
2022-08-27T01:41:03.959Z,6.05
2022-08-27T01:43:34.325Z,5.75
2022-08-27T01:46:04.530Z,5.85
2022-08-27T01:48:33.374Z,4.75
2022-08-27T01:51:02.503Z,6.57
2022-08-27T01:53:31.825Z,7.07
2022-08-27T01:56:00.932Z,4.80
2022-08-27T01:58:32.089Z,4.35
2022-08-27T02:01:08.793Z,6.85
2022-08-27T02:03:38.168Z,7.90
2022-08-27T02:06:11.055Z,8.30
2022-08-27T02:08:40.737Z,4.57
2022-08-27T02:11:10.135Z,7.03
2022-08-27T02:13:40.573Z,10.68
2022-08-27T02:16:10.963Z,4.43
2022-08-27T02:18:41.824Z,7.50
2022-08-27T02:21:12.078Z,6.32
2022-08-27T02:23:42.166Z,8.10
2022-08-27T02:26:11.093Z,8.02
2022-08-27T02:28:39.949Z,8.27
2022-08-27T02:31:10.838Z,6.50
2022-08-27T02:33:39.743Z,7.22
2022-08-27T02:36:10.085Z,5.40
2022-08-27T02:38:39.197Z,6.30
2022-08-27T02:41:08.386Z,5.82
2022-08-27T02:43:37.276Z,5.75
2022-08-27T02:46:06.241Z,6.70
2022-08-27T02:48:38.384Z,6.05
2022-08-27T02:51:08.158Z,6.15
2022-08-27T02:53:39.075Z,4.93
2022-08-27T02:56:09.764Z,6.00
2022-08-27T02:58:39.474Z,6.47
2022-08-27T03:01:11.224Z,7.85
2022-08-27T03:03:44.292Z,5.90
2022-08-27T03:06:13.402Z,5.78
2022-08-27T03:08:52.604Z,5.72
2022-08-27T03:11:24.227Z,5.90
2022-08-27T03:13:53.716Z,5.28
2022-08-27T03:16:23.207Z,6.00
2022-08-27T03:18:52.965Z,6.80
2022-08-27T03:21:26.466Z,5.60
2022-08-27T03:23:55.804Z,5.88
2022-08-27T03:26:24.742Z,7.88
2022-08-27T03:28:53.538Z,11.95
2022-08-27T03:31:27.958Z,7.15
2022-08-27T03:34:00.794Z,7.95
2022-08-27T03:36:32.280Z,11.55
2022-08-27T03:39:01.173Z,11.18
2022-08-27T03:41:45.558Z,12.07
2022-08-27T03:44:21.988Z,13.00
2022-08-27T03:46:51.449Z,11.68
2022-08-27T03:49:23.947Z,13.05
2022-08-27T03:51:54.852Z,15.95
2022-08-27T03:54:23.623Z,16.48
2022-08-27T03:56:52.677Z,13.55
2022-08-27T03:59:21.617Z,14.05
2022-08-27T04:01:50.421Z,15.38
2022-08-27T04:04:21.118Z,14.25
2022-08-27T04:06:49.920Z,14.35
2022-08-27T04:09:19.187Z,16.67
2022-08-27T04:11:48.008Z,16.23
2022-08-27T04:14:25.427Z,14.10
2022-08-27T04:16:57.728Z,17.15
2022-08-27T04:19:30.509Z,12.23
2022-08-27T04:22:03.811Z,17.55
2022-08-27T04:24:35.569Z,12.20
2022-08-27T04:27:06.905Z,15.95
2022-08-27T04:29:36.299Z,14.23
2022-08-27T04:32:06.596Z,16.65
2022-08-27T04:34:44.444Z,10.95
2022-08-27T04:37:15.325Z,13.07
2022-08-27T04:39:55.411Z,13.63
2022-08-27T04:42:27.079Z,9.60
2022-08-27T04:44:56.743Z,10.10
2022-08-27T04:47:26.249Z,9.15
2022-08-27T04:49:58.388Z,10.48
2022-08-27T04:52:31.612Z,11.60
2022-08-27T04:55:09.694Z,13.27
2022-08-27T04:57:41.701Z,8.15
2022-08-27T05:00:15.239Z,9.55
2022-08-27T05:02:49.079Z,11.50
2022-08-27T05:05:26.837Z,9.70
2022-08-27T05:08:01.653Z,12.80
2022-08-27T05:10:32.937Z,12.55
2022-08-27T05:13:13.883Z,10.07
2022-08-27T05:15:47.132Z,19.70
2022-08-27T05:18:22.641Z,29.42
2022-08-27T05:20:54.138Z,27.80
2022-08-27T05:23:28.490Z,31.50
2022-08-27T05:26:03.109Z,31.35
2022-08-27T05:28:34.483Z,27.25
2022-08-27T05:31:12.364Z,31.42
2022-08-27T05:33:45.295Z,26.58
2022-08-27T05:36:26.679Z,25.13
2022-08-27T05:38:59.009Z,25.00
2022-08-27T05:41:34.064Z,24.52
2022-08-27T05:44:39.562Z,22.98
2022-08-27T05:47:07.166Z,25.55
2022-08-27T05:49:41.850Z,18.30
2022-08-27T05:52:13.645Z,17.77
2022-08-27T05:54:42.412Z,19.05
2022-08-27T05:57:11.251Z,15.40
2022-08-27T05:59:57.434Z,14.55
2022-08-27T06:02:26.701Z,12.50
2022-08-27T06:04:55.667Z,10.52
2022-08-27T06:07:25.896Z,8.38
2022-08-27T06:09:54.741Z,10.63
2022-08-27T06:12:28.296Z,10.18
2022-08-27T06:14:57.757Z,7.80
2022-08-27T06:17:26.598Z,8.55
2022-08-27T06:19:55.534Z,10.60
2022-08-27T06:22:26.324Z,6.80
2022-08-27T06:24:55.420Z,7.57
2022-08-27T06:27:24.457Z,8.82
2022-08-27T06:29:53.342Z,9.02
2022-08-27T06:32:24.163Z,11.02
2022-08-27T06:34:52.975Z,12.80
2022-08-27T06:37:22.238Z,11.45
2022-08-27T06:39:52.978Z,10.65
2022-08-27T06:42:21.851Z,10.48
2022-08-27T06:44:55.581Z,11.85
2022-08-27T06:47:24.563Z,9.80
2022-08-27T06:49:54.373Z,12.07
2022-08-27T06:52:23.426Z,10.70
2022-08-27T06:54:53.789Z,10.73
2022-08-27T06:57:24.816Z,16.27
2022-08-27T06:59:54.172Z,9.90
2022-08-27T07:02:23.231Z,9.82
2022-08-27T07:04:54.971Z,12.40
2022-08-27T07:07:30.122Z,8.82
2022-08-27T07:10:06.480Z,9.98
2022-08-27T07:12:35.445Z,8.75
2022-08-27T07:15:04.872Z,12.15
2022-08-27T07:17:33.781Z,10.75
2022-08-27T07:20:02.913Z,8.27
2022-08-27T07:22:31.761Z,10.57
2022-08-27T07:25:00.784Z,11.25
2022-08-27T07:27:30.997Z,11.30
2022-08-27T07:30:01.768Z,10.07
2022-08-27T07:32:31.753Z,9.52
2022-08-27T07:35:00.951Z,7.90
2022-08-27T07:37:35.348Z,11.93
2022-08-27T07:40:07.280Z,9.38
2022-08-27T07:42:55.219Z,10.82
2022-08-27T07:45:24.482Z,8.65
2022-08-27T07:47:53.508Z,9.27
2022-08-27T07:50:23.848Z,8.13
2022-08-27T07:52:53.078Z,8.05
2022-08-27T07:55:22.069Z,8.52
2022-08-27T07:57:52.785Z,8.73
2022-08-27T08:00:22.239Z,9.77
2022-08-27T08:02:55.528Z,7.38
2022-08-27T08:05:26.496Z,8.02
2022-08-27T08:07:56.876Z,9.18
2022-08-27T08:10:33.631Z,9.05
2022-08-27T08:13:08.942Z,9.68
2022-08-27T08:15:40.111Z,9.20
2022-08-27T08:18:09.191Z,10.80
2022-08-27T08:20:57.029Z,9.07
2022-08-27T08:23:28.020Z,10.00
2022-08-27T08:25:59.466Z,10.60
2022-08-27T08:28:30.979Z,11.75
2022-08-27T08:31:00.502Z,10.07
2022-08-27T08:33:31.712Z,9.75
2022-08-27T08:36:07.410Z,10.65
2022-08-27T08:38:36.251Z,10.57
2022-08-27T08:41:07.586Z,8.85
2022-08-27T08:43:44.261Z,10.38
2022-08-27T08:46:22.539Z,11.27
2022-08-27T08:49:01.047Z,9.10
2022-08-27T08:51:40.845Z,9.45
2022-08-27T08:54:20.110Z,8.98
2022-08-27T08:57:00.527Z,12.68
2022-08-27T08:59:37.218Z,9.10
2022-08-27T09:02:13.226Z,10.75
2022-08-27T09:04:44.702Z,11.68
2022-08-27T09:07:25.478Z,11.32
2022-08-27T09:10:05.443Z,10.73
2022-08-27T09:12:34.528Z,10.23
2022-08-27T09:15:15.152Z,9.68
2022-08-27T09:17:45.036Z,8.88
2022-08-27T09:20:25.684Z,9.75
2022-08-27T09:23:06.763Z,8.27
2022-08-27T09:25:39.406Z,9.75
2022-08-27T09:28:33.101Z,9.18
2022-08-27T09:31:08.356Z,9.07
2022-08-27T09:33:53.612Z,7.43
2022-08-27T09:36:26.844Z,10.85
2022-08-27T09:39:02.090Z,9.75
2022-08-27T09:41:42.711Z,8.75
2022-08-27T09:44:15.727Z,9.35
2022-08-27T09:46:58.093Z,9.80
2022-08-27T09:49:27.654Z,9.90
2022-08-27T09:51:57.789Z,9.18
2022-08-27T09:54:43.957Z,11.35
2022-08-27T09:57:26.197Z,12.90
2022-08-27T10:00:00.066Z,10.18
2022-08-27T10:02:30.645Z,12.93
2022-08-27T10:05:18.008Z,13.23
2022-08-27T10:07:56.992Z,11.63
2022-08-27T10:10:40.597Z,14.77
2022-08-27T10:13:18.684Z,14.27
2022-08-27T10:16:00.942Z,16.67
2022-08-27T10:18:46.625Z,14.70
2022-08-27T10:21:26.017Z,12.65
2022-08-27T10:24:21.172Z,15.48
2022-08-27T10:27:07.067Z,13.73
2022-08-27T10:29:49.029Z,15.75
2022-08-27T10:32:52.216Z,17.85
2022-08-27T10:35:28.329Z,13.25
2022-08-27T10:38:16.350Z,16.70
2022-08-27T10:40:53.680Z,13.40
2022-08-27T10:43:59.714Z,11.43
2022-08-27T10:47:05.858Z,10.65
2022-08-27T10:49:49.381Z,10.38
2022-08-27T10:52:27.258Z,14.63
2022-08-27T10:55:02.758Z,9.55
2022-08-27T10:58:07.529Z,13.95
2022-08-27T11:00:52.805Z,11.52
2022-08-27T11:03:33.509Z,19.55
2022-08-27T11:06:29.948Z,21.02
2022-08-27T11:09:07.665Z,19.92
2022-08-27T11:14:40.903Z,22.52
2022-08-27T11:17:18.806Z,21.63
2022-08-27T11:19:58.371Z,21.25
2022-08-27T11:22:35.938Z,32.95
2022-08-27T11:25:23.061Z,21.55
2022-08-27T11:27:57.881Z,22.70
2022-08-27T11:30:42.211Z,24.83
2022-08-27T11:33:24.039Z,21.27
2022-08-27T11:36:47.593Z,23.08
2022-08-27T11:39:54.269Z,21.27
2022-08-27T11:42:38.136Z,20.40
2022-08-27T11:45:16.850Z,19.27
2022-08-27T11:47:55.316Z,20.75
2022-08-27T11:50:26.598Z,21.30
2022-08-27T11:53:00.944Z,18.52
2022-08-27T11:55:37.204Z,18.48
2022-08-27T11:58:27.132Z,16.52
2022-08-27T12:01:02.205Z,25.95
2022-08-27T12:03:37.316Z,21.42
2022-08-27T12:06:26.848Z,23.50
2022-08-27T12:09:24.144Z,19.38
2022-08-27T12:12:12.797Z,21.30
2022-08-27T12:14:54.516Z,18.73
2022-08-27T12:17:32.625Z,21.60
2022-08-27T12:20:29.173Z,18.50
2022-08-27T12:23:43.062Z,15.70
2022-08-27T12:26:32.867Z,18.58
2022-08-27T12:29:29.351Z,18.35
2022-08-27T12:32:25.002Z,23.85
2022-08-27T12:35:03.514Z,16.42
2022-08-27T12:37:37.678Z,16.67
2022-08-27T12:40:20.645Z,18.08
2022-08-27T12:43:07.461Z,17.15
2022-08-27T12:45:46.951Z,18.60
2022-08-27T12:48:21.158Z,19.25
2022-08-27T12:50:55.378Z,20.83
2022-08-27T12:53:44.967Z,24.30
2022-08-27T12:56:55.567Z,23.60
2022-08-27T12:59:56.829Z,21.33
2022-08-27T13:02:51.059Z,22.70
2022-08-27T13:05:24.812Z,18.13
2022-08-27T13:07:55.780Z,19.25
2022-08-27T13:10:31.177Z,19.08
2022-08-27T13:13:08.896Z,20.40
2022-08-27T13:15:38.504Z,15.90
2022-08-27T13:18:08.288Z,18.55
2022-08-27T13:20:41.837Z,14.50
2022-08-27T13:23:25.097Z,16.65
2022-08-27T13:26:05.664Z,16.60
2022-08-27T13:28:37.153Z,15.40
2022-08-27T13:31:10.520Z,16.30
2022-08-27T13:33:42.503Z,14.90
2022-08-27T13:36:26.554Z,14.82
2022-08-27T13:39:02.760Z,17.48
2022-08-27T13:41:36.842Z,14.40
2022-08-27T13:44:16.673Z,13.63
2022-08-27T13:46:53.183Z,11.88
2022-08-27T13:49:27.063Z,17.15
2022-08-27T13:52:08.203Z,18.42
2022-08-27T13:54:36.410Z,15.13
2022-08-27T13:57:11.550Z,15.50
2022-08-27T13:59:43.419Z,14.13
2022-08-27T14:02:28.812Z,14.15
2022-08-27T14:05:13.561Z,18.35
2022-08-27T14:07:49.402Z,15.82
2022-08-27T14:10:36.080Z,14.55
2022-08-27T14:13:09.568Z,14.23
2022-08-27T14:15:42.035Z,15.60
2022-08-27T14:18:42.190Z,14.40
2022-08-27T14:21:14.720Z,16.52
2022-08-27T14:23:44.971Z,17.02
2022-08-27T14:26:17.494Z,16.92
2022-08-27T14:28:47.344Z,14.52
2022-08-27T14:31:17.148Z,14.65
2022-08-27T14:33:46.583Z,17.42
2022-08-27T14:36:16.874Z,16.17
2022-08-27T14:38:51.497Z,17.20
2022-08-27T14:41:22.501Z,17.17
2022-08-27T14:43:52.044Z,15.70
2022-08-27T14:46:27.965Z,16.70
2022-08-27T14:49:00.481Z,20.15
2022-08-27T14:51:34.431Z,15.43
2022-08-27T14:54:05.479Z,17.20
2022-08-27T14:56:34.274Z,14.57
2022-08-27T14:59:06.789Z,16.65
2022-08-27T15:01:37.470Z,13.85
2022-08-27T15:04:07.626Z,14.35
2022-08-27T15:06:37.180Z,15.70
2022-08-27T15:09:08.015Z,14.70
2022-08-27T15:11:39.910Z,17.25
2022-08-27T15:14:17.465Z,15.98
2022-08-27T15:16:46.259Z,16.55
2022-08-27T15:19:16.538Z,16.15
2022-08-27T15:21:49.079Z,17.02
2022-08-27T15:24:27.319Z,14.88
2022-08-27T15:26:58.994Z,15.52
2022-08-27T15:29:28.787Z,20.23
2022-08-27T15:32:00.840Z,18.10
2022-08-27T15:34:29.765Z,16.50
2022-08-27T15:36:58.552Z,14.50
2022-08-27T15:39:28.997Z,17.08
2022-08-27T15:42:06.589Z,14.50
2022-08-27T15:44:37.550Z,13.18
2022-08-27T15:47:07.348Z,17.20
2022-08-27T15:49:36.194Z,17.73
2022-08-27T15:52:06.267Z,15.70
2022-08-27T15:54:37.355Z,16.83
2022-08-27T15:57:07.154Z,15.50
2022-08-27T15:59:38.870Z,15.75
2022-08-27T16:02:16.534Z,15.07
2022-08-27T16:04:49.226Z,12.77
2022-08-27T16:07:21.232Z,18.33
2022-08-27T16:09:52.213Z,12.98
2022-08-27T16:12:30.538Z,13.70
2022-08-27T16:14:59.325Z,14.25
2022-08-27T16:17:28.539Z,17.17
2022-08-27T16:19:57.400Z,15.23
2022-08-27T16:22:26.200Z,16.35
2022-08-27T16:24:56.578Z,13.88
2022-08-27T16:27:25.321Z,13.88
2022-08-27T16:29:54.602Z,14.85
2022-08-27T16:32:23.799Z,16.40
2022-08-27T16:34:55.920Z,13.90
2022-08-27T16:37:25.455Z,15.80
2022-08-27T16:39:56.104Z,13.38
2022-08-27T16:42:25.247Z,13.10
2022-08-27T16:44:54.299Z,14.32
2022-08-27T16:47:23.166Z,20.08
2022-08-27T16:50:09.322Z,12.65
2022-08-27T16:52:38.148Z,11.63
2022-08-27T16:55:11.901Z,11.55
2022-08-27T16:57:40.829Z,11.43
2022-08-27T17:00:12.132Z,11.38
2022-08-27T17:07:21.530Z,11.32
2022-08-27T17:09:54.663Z,10.50
2022-08-27T17:12:28.242Z,13.40
2022-08-27T17:15:00.578Z,14.88
2022-08-27T17:17:30.232Z,13.05
2022-08-27T17:19:59.201Z,16.08
2022-08-27T17:22:28.001Z,14.95
2022-08-27T17:24:56.914Z,12.50
2022-08-27T17:27:25.597Z,11.02
2022-08-27T17:29:55.984Z,13.68
2022-08-27T17:32:24.783Z,15.52
2022-08-27T17:34:53.779Z,16.30
2022-08-27T17:37:22.693Z,14.18
2022-08-27T17:39:51.592Z,15.15
2022-08-27T17:42:20.559Z,17.85
2022-08-27T17:44:49.757Z,16.92
2022-08-27T17:47:35.190Z,23.15
2022-08-27T17:50:05.278Z,15.30
2022-08-27T17:52:36.640Z,16.83
2022-08-27T17:55:07.355Z,24.38
2022-08-27T17:57:40.848Z,18.73
2022-08-27T18:00:15.113Z,20.63
2022-08-27T18:02:52.417Z,23.35
2022-08-27T18:05:26.546Z,19.92
2022-08-27T18:07:57.182Z,19.25
2022-08-27T18:10:40.854Z,18.60
2022-08-27T18:13:14.163Z,12.48
2022-08-27T18:15:44.167Z,14.93
2022-08-27T18:18:15.651Z,13.18
2022-08-27T18:20:46.087Z,15.23
2022-08-27T18:23:16.194Z,17.35
2022-08-27T18:25:47.413Z,17.00
2022-08-27T18:28:22.620Z,16.33
2022-08-27T18:30:52.669Z,12.55
2022-08-27T18:33:25.965Z,11.68
2022-08-27T18:35:57.108Z,10.80
2022-08-27T18:38:30.156Z,10.00
2022-08-27T18:41:01.157Z,11.55
2022-08-27T18:43:35.346Z,10.10
2022-08-27T18:46:07.137Z,11.13
2022-08-27T18:48:40.111Z,11.88
2022-08-27T18:51:12.284Z,9.88
2022-08-27T18:53:45.123Z,10.10
2022-08-27T18:56:19.218Z,10.23
2022-08-27T18:58:50.509Z,11.00
2022-08-27T19:01:28.745Z,12.38
2022-08-27T19:04:00.614Z,12.27
2022-08-27T19:06:30.355Z,14.02
2022-08-27T19:08:59.857Z,10.23
2022-08-27T19:11:30.424Z,12.00
2022-08-27T19:13:59.995Z,9.73
2022-08-27T19:16:43.654Z,12.32
2022-08-27T19:19:18.576Z,13.18
2022-08-27T19:21:51.560Z,9.90
2022-08-27T19:24:24.106Z,12.95
2022-08-27T19:26:55.146Z,13.05
2022-08-27T19:29:24.204Z,13.20
2022-08-27T19:31:53.187Z,9.57
2022-08-27T19:34:25.400Z,10.27
2022-08-27T19:36:54.803Z,11.43
2022-08-27T19:39:23.765Z,8.98
2022-08-27T19:41:53.001Z,9.82
2022-08-27T19:44:22.449Z,8.77
2022-08-27T19:46:55.959Z,11.07
2022-08-27T19:49:27.129Z,8.07
2022-08-27T19:51:56.474Z,10.30
2022-08-27T19:54:25.823Z,6.97
2022-08-27T19:57:02.327Z,8.05
2022-08-27T19:59:32.012Z,7.47
2022-08-27T20:02:01.760Z,7.63
2022-08-27T20:04:35.721Z,11.43
2022-08-27T20:07:08.581Z,6.80
2022-08-27T20:09:37.496Z,8.13
2022-08-27T20:12:07.386Z,7.25
2022-08-27T20:14:38.016Z,9.02
2022-08-27T20:17:10.634Z,9.13
2022-08-27T20:19:41.758Z,6.95
2022-08-27T20:22:11.427Z,8.57
2022-08-27T20:24:40.206Z,7.38
2022-08-27T20:27:09.493Z,5.70
2022-08-27T20:29:38.482Z,9.52
2022-08-27T20:32:07.934Z,7.63
2022-08-27T20:34:37.581Z,6.57
2022-08-27T20:37:07.953Z,6.88
2022-08-27T20:39:37.276Z,7.25
2022-08-27T20:42:07.228Z,8.02
2022-08-27T20:44:35.980Z,5.20
2022-08-27T20:47:05.625Z,8.05
2022-08-27T20:49:35.604Z,7.30
2022-08-27T20:52:10.963Z,6.88
2022-08-27T20:54:42.692Z,5.70
2022-08-27T20:57:15.463Z,11.68
2022-08-27T21:00:01.960Z,5.32
2022-08-27T21:02:31.515Z,4.63
2022-08-27T21:05:08.418Z,5.55
2022-08-27T21:07:38.743Z,6.07
2022-08-27T21:10:09.253Z,5.22
2022-08-27T21:12:40.423Z,5.53
2022-08-27T21:15:17.183Z,5.57
2022-08-27T21:17:50.493Z,3.90
2022-08-27T21:20:20.023Z,5.93
2022-08-27T21:22:52.371Z,4.88
2022-08-27T21:25:25.773Z,4.00
2022-08-27T21:27:56.951Z,5.32
2022-08-27T21:30:26.803Z,4.43
2022-08-27T21:32:56.880Z,4.88
2022-08-27T21:35:27.628Z,7.90
2022-08-27T21:38:00.710Z,5.03
2022-08-27T21:40:33.225Z,13.23
2022-08-27T21:43:02.585Z,11.30
2022-08-27T21:45:31.698Z,12.43
2022-08-27T21:48:00.633Z,15.27
2022-08-27T21:50:31.198Z,13.40
2022-08-27T21:53:01.798Z,5.40
2022-08-27T21:55:30.818Z,9.10
2022-08-27T21:57:59.812Z,8.48
2022-08-27T22:00:44.815Z,5.80
2022-08-27T22:03:22.761Z,5.82
2022-08-27T22:05:52.814Z,8.60
2022-08-27T22:08:24.106Z,8.82
2022-08-27T22:10:57.903Z,6.13
2022-08-27T22:13:27.581Z,9.00
2022-08-27T22:16:01.042Z,6.25
2022-08-27T22:18:32.543Z,7.03
2022-08-27T22:21:02.174Z,7.97
2022-08-27T22:23:33.179Z,5.30
2022-08-27T22:26:01.970Z,6.95
2022-08-27T22:28:30.959Z,6.00
2022-08-27T22:30:59.794Z,13.48
2022-08-27T22:33:28.748Z,8.55
2022-08-27T22:35:57.593Z,7.78
2022-08-27T22:38:26.631Z,5.30
2022-08-27T22:40:57.083Z,6.40
2022-08-27T22:43:26.206Z,7.28
2022-08-27T22:45:55.098Z,5.97
2022-08-27T22:48:24.122Z,7.15
2022-08-27T22:50:53.212Z,5.20
2022-08-27T22:53:22.237Z,8.50
2022-08-27T22:55:51.289Z,6.40
2022-08-27T22:58:24.353Z,6.13
2022-08-27T23:00:54.874Z,7.88
2022-08-27T23:03:24.391Z,7.43
2022-08-27T23:05:54.964Z,6.72
2022-08-27T23:08:23.807Z,7.45
2022-08-27T23:10:53.278Z,8.77
2022-08-27T23:13:23.526Z,11.43
2022-08-27T23:15:53.974Z,6.88
2022-08-27T23:18:23.103Z,6.13
2022-08-27T23:20:52.257Z,8.80
2022-08-27T23:23:26.703Z,7.15
2022-08-27T23:26:22.629Z,5.50
2022-08-27T23:28:56.423Z,9.60
2022-08-27T23:31:25.435Z,8.02
2022-08-27T23:33:55.706Z,7.35
2022-08-27T23:36:24.748Z,5.90
2022-08-27T23:38:53.533Z,6.75
2022-08-27T23:41:22.833Z,7.10
2022-08-27T23:43:51.853Z,7.65
2022-08-27T23:46:22.281Z,12.20
2022-08-27T23:48:51.189Z,13.52
2022-08-27T23:51:20.169Z,14.63
2022-08-27T23:53:49.095Z,16.13
2022-08-27T23:56:17.853Z,15.32
2022-08-27T23:58:46.732Z,17.75
